sensor_id;sensor_type;location;lat;lon;timestamp;P1;durP1;ratioP1;P2;durP2;ratioP2
46731;SDS011;32477;51.474;5.696;2023-07-13T00:00:19;4.22;;;1.38;;
46731;SDS011;32477;51.474;5.696;2023-07-13T00:02:45;9.55;;;2.03;;
46731;SDS011;32477;51.474;5.696;2023-07-13T00:05:11;4.65;;;1.95;;
46731;SDS011;32477;51.474;5.696;2023-07-13T00:07:37;6.85;;;1.63;;
46731;SDS011;32477;51.474;5.696;2023-07-13T00:10:03;6.40;;;1.83;;
46731;SDS011;32477;51.474;5.696;2023-07-13T00:12:32;8.85;;;2.05;;
46731;SDS011;32477;51.474;5.696;2023-07-13T00:15:01;6.05;;;1.95;;
46731;SDS011;32477;51.474;5.696;2023-07-13T00:17:32;9.52;;;2.28;;
46731;SDS011;32477;51.474;5.696;2023-07-13T00:19:57;8.65;;;2.55;;
46731;SDS011;32477;51.474;5.696;2023-07-13T00:22:24;16.05;;;2.95;;
46731;SDS011;32477;51.474;5.696;2023-07-13T00:24:53;10.18;;;2.28;;
46731;SDS011;32477;51.474;5.696;2023-07-13T00:27:21;8.93;;;2.38;;
46731;SDS011;32477;51.474;5.696;2023-07-13T00:29:47;6.55;;;2.15;;
46731;SDS011;32477;51.474;5.696;2023-07-13T00:32:12;15.20;;;2.22;;
46731;SDS011;32477;51.474;5.696;2023-07-13T00:34:38;10.90;;;1.67;;
46731;SDS011;32477;51.474;5.696;2023-07-13T00:37:05;7.68;;;2.03;;
46731;SDS011;32477;51.474;5.696;2023-07-13T00:39:32;8.07;;;1.80;;
46731;SDS011;32477;51.474;5.696;2023-07-13T00:41:59;7.78;;;1.65;;
46731;SDS011;32477;51.474;5.696;2023-07-13T00:44:25;8.88;;;2.03;;
46731;SDS011;32477;51.474;5.696;2023-07-13T00:46:51;7.63;;;2.35;;
46731;SDS011;32477;51.474;5.696;2023-07-13T00:49:18;10.23;;;2.50;;
46731;SDS011;32477;51.474;5.696;2023-07-13T00:54:24;7.63;;;1.92;;
46731;SDS011;32477;51.474;5.696;2023-07-13T00:56:55;10.73;;;1.90;;
46731;SDS011;32477;51.474;5.696;2023-07-13T00:59:24;6.63;;;1.83;;
46731;SDS011;32477;51.474;5.696;2023-07-13T01:01:50;5.88;;;1.60;;
46731;SDS011;32477;51.474;5.696;2023-07-13T01:04:17;14.90;;;2.80;;
46731;SDS011;32477;51.474;5.696;2023-07-13T01:06:43;13.73;;;2.80;;
46731;SDS011;32477;51.474;5.696;2023-07-13T01:09:10;11.32;;;2.42;;
46731;SDS011;32477;51.474;5.696;2023-07-13T01:11:37;9.10;;;2.63;;
46731;SDS011;32477;51.474;5.696;2023-07-13T01:14:03;12.57;;;2.20;;
46731;SDS011;32477;51.474;5.696;2023-07-13T01:16:30;17.70;;;2.65;;
46731;SDS011;32477;51.474;5.696;2023-07-13T01:18:58;5.03;;;1.88;;
46731;SDS011;32477;51.474;5.696;2023-07-13T01:21:32;12.25;;;1.98;;
46731;SDS011;32477;51.474;5.696;2023-07-13T01:23:58;7.95;;;1.88;;
46731;SDS011;32477;51.474;5.696;2023-07-13T01:26:24;10.82;;;2.60;;
46731;SDS011;32477;51.474;5.696;2023-07-13T01:28:50;14.38;;;2.97;;
46731;SDS011;32477;51.474;5.696;2023-07-13T01:31:15;14.85;;;3.10;;
46731;SDS011;32477;51.474;5.696;2023-07-13T01:33:41;9.02;;;3.00;;
46731;SDS011;32477;51.474;5.696;2023-07-13T01:36:08;12.35;;;2.42;;
46731;SDS011;32477;51.474;5.696;2023-07-13T01:38:36;9.27;;;2.03;;
46731;SDS011;32477;51.474;5.696;2023-07-13T01:41:02;12.57;;;2.67;;
46731;SDS011;32477;51.474;5.696;2023-07-13T01:43:28;10.23;;;2.35;;
46731;SDS011;32477;51.474;5.696;2023-07-13T01:45:54;10.20;;;1.90;;
46731;SDS011;32477;51.474;5.696;2023-07-13T01:48:20;10.23;;;1.98;;
46731;SDS011;32477;51.474;5.696;2023-07-13T01:50:47;7.10;;;2.35;;
46731;SDS011;32477;51.474;5.696;2023-07-13T01:53:13;12.65;;;2.60;;
46731;SDS011;32477;51.474;5.696;2023-07-13T01:55:38;11.15;;;3.38;;
46731;SDS011;32477;51.474;5.696;2023-07-13T01:58:04;8.25;;;3.00;;
46731;SDS011;32477;51.474;5.696;2023-07-13T02:00:31;13.65;;;2.85;;
46731;SDS011;32477;51.474;5.696;2023-07-13T02:02:57;6.15;;;2.13;;
46731;SDS011;32477;51.474;5.696;2023-07-13T02:05:23;7.95;;;2.35;;
46731;SDS011;32477;51.474;5.696;2023-07-13T02:07:49;5.85;;;2.08;;
46731;SDS011;32477;51.474;5.696;2023-07-13T02:10:15;14.98;;;2.85;;
46731;SDS011;32477;51.474;5.696;2023-07-13T02:12:41;7.50;;;2.22;;
46731;SDS011;32477;51.474;5.696;2023-07-13T02:15:07;7.35;;;1.90;;
46731;SDS011;32477;51.474;5.696;2023-07-13T02:17:34;10.95;;;2.53;;
46731;SDS011;32477;51.474;5.696;2023-07-13T02:20:01;7.72;;;2.08;;
46731;SDS011;32477;51.474;5.696;2023-07-13T02:22:27;12.00;;;2.05;;
46731;SDS011;32477;51.474;5.696;2023-07-13T02:24:53;8.45;;;1.85;;
46731;SDS011;32477;51.474;5.696;2023-07-13T02:27:19;7.65;;;1.88;;
46731;SDS011;32477;51.474;5.696;2023-07-13T02:29:44;8.20;;;2.40;;
46731;SDS011;32477;51.474;5.696;2023-07-13T02:32:10;10.70;;;2.67;;
46731;SDS011;32477;51.474;5.696;2023-07-13T02:34:36;13.90;;;2.83;;
46731;SDS011;32477;51.474;5.696;2023-07-13T02:37:02;10.25;;;3.00;;
46731;SDS011;32477;51.474;5.696;2023-07-13T02:39:27;7.55;;;2.47;;
46731;SDS011;32477;51.474;5.696;2023-07-13T02:41:53;9.90;;;2.38;;
46731;SDS011;32477;51.474;5.696;2023-07-13T02:44:19;7.45;;;2.47;;
46731;SDS011;32477;51.474;5.696;2023-07-13T02:46:45;10.18;;;2.30;;
46731;SDS011;32477;51.474;5.696;2023-07-13T02:49:10;13.95;;;2.42;;
46731;SDS011;32477;51.474;5.696;2023-07-13T02:51:37;7.38;;;2.28;;
46731;SDS011;32477;51.474;5.696;2023-07-13T02:54:03;9.43;;;2.38;;
46731;SDS011;32477;51.474;5.696;2023-07-13T02:56:30;7.53;;;2.28;;
46731;SDS011;32477;51.474;5.696;2023-07-13T02:58:57;12.40;;;2.30;;
46731;SDS011;32477;51.474;5.696;2023-07-13T03:01:23;10.57;;;2.55;;
46731;SDS011;32477;51.474;5.696;2023-07-13T03:03:50;14.90;;;2.78;;
46731;SDS011;32477;51.474;5.696;2023-07-13T03:06:16;14.68;;;2.30;;
46731;SDS011;32477;51.474;5.696;2023-07-13T03:08:43;7.90;;;2.47;;
46731;SDS011;32477;51.474;5.696;2023-07-13T03:11:11;10.80;;;2.60;;
46731;SDS011;32477;51.474;5.696;2023-07-13T03:13:39;11.73;;;3.40;;
46731;SDS011;32477;51.474;5.696;2023-07-13T03:16:06;15.80;;;2.33;;
46731;SDS011;32477;51.474;5.696;2023-07-13T03:18:32;10.93;;;2.60;;
46731;SDS011;32477;51.474;5.696;2023-07-13T03:20:58;6.00;;;2.42;;
46731;SDS011;32477;51.474;5.696;2023-07-13T03:23:24;11.75;;;2.92;;
46731;SDS011;32477;51.474;5.696;2023-07-13T03:26:00;8.95;;;2.35;;
46731;SDS011;32477;51.474;5.696;2023-07-13T03:28:33;5.45;;;2.13;;
46731;SDS011;32477;51.474;5.696;2023-07-13T03:31:00;10.02;;;2.80;;
46731;SDS011;32477;51.474;5.696;2023-07-13T03:33:27;7.20;;;2.30;;
46731;SDS011;32477;51.474;5.696;2023-07-13T03:35:53;19.52;;;3.15;;
46731;SDS011;32477;51.474;5.696;2023-07-13T03:38:18;17.10;;;3.40;;
46731;SDS011;32477;51.474;5.696;2023-07-13T03:40:44;11.40;;;3.22;;
46731;SDS011;32477;51.474;5.696;2023-07-13T03:43:10;17.63;;;3.45;;
46731;SDS011;32477;51.474;5.696;2023-07-13T03:45:37;14.27;;;4.28;;
46731;SDS011;32477;51.474;5.696;2023-07-13T03:48:03;15.52;;;4.60;;
46731;SDS011;32477;51.474;5.696;2023-07-13T03:50:30;18.92;;;3.65;;
46731;SDS011;32477;51.474;5.696;2023-07-13T03:52:57;9.25;;;2.58;;
46731;SDS011;32477;51.474;5.696;2023-07-13T03:55:23;12.20;;;3.17;;
46731;SDS011;32477;51.474;5.696;2023-07-13T03:57:53;12.68;;;3.25;;
46731;SDS011;32477;51.474;5.696;2023-07-13T04:00:23;14.88;;;3.55;;
46731;SDS011;32477;51.474;5.696;2023-07-13T04:02:49;12.85;;;4.10;;
46731;SDS011;32477;51.474;5.696;2023-07-13T04:05:15;13.05;;;3.30;;
46731;SDS011;32477;51.474;5.696;2023-07-13T04:07:41;15.05;;;3.10;;
46731;SDS011;32477;51.474;5.696;2023-07-13T04:10:07;11.73;;;3.38;;
46731;SDS011;32477;51.474;5.696;2023-07-13T04:12:33;8.18;;;3.08;;
46731;SDS011;32477;51.474;5.696;2023-07-13T04:14:59;12.48;;;3.08;;
46731;SDS011;32477;51.474;5.696;2023-07-13T04:17:24;19.15;;;3.53;;
46731;SDS011;32477;51.474;5.696;2023-07-13T04:19:50;10.80;;;3.45;;
46731;SDS011;32477;51.474;5.696;2023-07-13T04:22:16;18.25;;;4.50;;
46731;SDS011;32477;51.474;5.696;2023-07-13T04:24:41;15.80;;;3.85;;
46731;SDS011;32477;51.474;5.696;2023-07-13T04:27:07;12.95;;;4.03;;
46731;SDS011;32477;51.474;5.696;2023-07-13T04:29:33;15.35;;;4.50;;
46731;SDS011;32477;51.474;5.696;2023-07-13T04:31:59;16.88;;;3.88;;
46731;SDS011;32477;51.474;5.696;2023-07-13T04:34:24;12.50;;;4.03;;
46731;SDS011;32477;51.474;5.696;2023-07-13T04:36:50;23.48;;;5.13;;
46731;SDS011;32477;51.474;5.696;2023-07-13T04:39:16;9.63;;;3.65;;
46731;SDS011;32477;51.474;5.696;2023-07-13T04:41:42;8.48;;;3.13;;
46731;SDS011;32477;51.474;5.696;2023-07-13T04:44:08;15.27;;;3.40;;
46731;SDS011;32477;51.474;5.696;2023-07-13T04:46:33;13.05;;;3.10;;
46731;SDS011;32477;51.474;5.696;2023-07-13T04:48:59;12.23;;;3.97;;
46731;SDS011;32477;51.474;5.696;2023-07-13T04:51:25;14.82;;;3.95;;
46731;SDS011;32477;51.474;5.696;2023-07-13T04:53:52;13.10;;;2.90;;
46731;SDS011;32477;51.474;5.696;2023-07-13T04:56:17;16.02;;;3.72;;
46731;SDS011;32477;51.474;5.696;2023-07-13T04:58:44;9.32;;;3.17;;
46731;SDS011;32477;51.474;5.696;2023-07-13T05:01:10;15.25;;;3.88;;
46731;SDS011;32477;51.474;5.696;2023-07-13T05:03:36;9.60;;;2.83;;
46731;SDS011;32477;51.474;5.696;2023-07-13T05:06:03;21.65;;;4.30;;
46731;SDS011;32477;51.474;5.696;2023-07-13T05:08:30;16.85;;;3.63;;
46731;SDS011;32477;51.474;5.696;2023-07-13T05:10:56;17.30;;;4.22;;
46731;SDS011;32477;51.474;5.696;2023-07-13T05:13:24;17.88;;;4.15;;
46731;SDS011;32477;51.474;5.696;2023-07-13T05:15:57;11.43;;;4.03;;
46731;SDS011;32477;51.474;5.696;2023-07-13T05:18:24;15.65;;;3.97;;
46731;SDS011;32477;51.474;5.696;2023-07-13T05:20:57;17.45;;;4.30;;
46731;SDS011;32477;51.474;5.696;2023-07-13T05:23:25;24.25;;;4.47;;
46731;SDS011;32477;51.474;5.696;2023-07-13T05:25:50;17.20;;;4.10;;
46731;SDS011;32477;51.474;5.696;2023-07-13T05:28:16;16.17;;;4.57;;
46731;SDS011;32477;51.474;5.696;2023-07-13T05:30:46;17.10;;;4.53;;
46731;SDS011;32477;51.474;5.696;2023-07-13T05:33:12;22.35;;;4.50;;
46731;SDS011;32477;51.474;5.696;2023-07-13T05:35:38;24.40;;;4.97;;
46731;SDS011;32477;51.474;5.696;2023-07-13T05:38:03;16.98;;;5.25;;
46731;SDS011;32477;51.474;5.696;2023-07-13T05:40:29;15.52;;;4.53;;
46731;SDS011;32477;51.474;5.696;2023-07-13T05:42:55;18.80;;;4.85;;
46731;SDS011;32477;51.474;5.696;2023-07-13T05:45:21;20.38;;;5.13;;
46731;SDS011;32477;51.474;5.696;2023-07-13T05:47:46;17.02;;;5.00;;
46731;SDS011;32477;51.474;5.696;2023-07-13T05:50:12;24.63;;;6.05;;
46731;SDS011;32477;51.474;5.696;2023-07-13T05:52:38;17.63;;;5.55;;
46731;SDS011;32477;51.474;5.696;2023-07-13T05:55:04;17.92;;;5.25;;
46731;SDS011;32477;51.474;5.696;2023-07-13T05:57:30;24.63;;;6.28;;
46731;SDS011;32477;51.474;5.696;2023-07-13T05:59:56;22.88;;;5.65;;
46731;SDS011;32477;51.474;5.696;2023-07-13T06:02:22;16.38;;;6.35;;
46731;SDS011;32477;51.474;5.696;2023-07-13T06:04:48;22.35;;;5.85;;
46731;SDS011;32477;51.474;5.696;2023-07-13T06:07:14;16.13;;;5.22;;
46731;SDS011;32477;51.474;5.696;2023-07-13T06:09:40;25.52;;;5.88;;
46731;SDS011;32477;51.474;5.696;2023-07-13T06:12:06;17.58;;;5.13;;
46731;SDS011;32477;51.474;5.696;2023-07-13T06:14:32;29.50;;;5.75;;
46731;SDS011;32477;51.474;5.696;2023-07-13T06:16:57;23.65;;;5.30;;
46731;SDS011;32477;51.474;5.696;2023-07-13T06:19:23;23.02;;;5.63;;
46731;SDS011;32477;51.474;5.696;2023-07-13T06:21:49;19.30;;;5.45;;
46731;SDS011;32477;51.474;5.696;2023-07-13T06:24:15;22.63;;;5.38;;
46731;SDS011;32477;51.474;5.696;2023-07-13T06:26:40;24.35;;;5.18;;
46731;SDS011;32477;51.474;5.696;2023-07-13T06:29:06;21.98;;;4.93;;
46731;SDS011;32477;51.474;5.696;2023-07-13T06:31:32;16.85;;;5.95;;
46731;SDS011;32477;51.474;5.696;2023-07-13T06:33:58;17.00;;;5.07;;
46731;SDS011;32477;51.474;5.696;2023-07-13T06:36:23;22.30;;;5.60;;
46731;SDS011;32477;51.474;5.696;2023-07-13T06:38:49;17.55;;;5.63;;
46731;SDS011;32477;51.474;5.696;2023-07-13T06:41:15;20.23;;;5.80;;
46731;SDS011;32477;51.474;5.696;2023-07-13T06:43:40;15.85;;;5.00;;
46731;SDS011;32477;51.474;5.696;2023-07-13T06:46:06;20.73;;;5.78;;
46731;SDS011;32477;51.474;5.696;2023-07-13T06:48:32;14.52;;;4.90;;
46731;SDS011;32477;51.474;5.696;2023-07-13T06:50:58;19.00;;;6.43;;
46731;SDS011;32477;51.474;5.696;2023-07-13T06:53:23;18.00;;;6.72;;
46731;SDS011;32477;51.474;5.696;2023-07-13T06:55:49;17.98;;;6.43;;
46731;SDS011;32477;51.474;5.696;2023-07-13T06:58:16;20.02;;;4.93;;
46731;SDS011;32477;51.474;5.696;2023-07-13T07:00:43;21.50;;;6.07;;
46731;SDS011;32477;51.474;5.696;2023-07-13T07:03:09;20.60;;;6.20;;
46731;SDS011;32477;51.474;5.696;2023-07-13T07:05:35;16.90;;;6.45;;
46731;SDS011;32477;51.474;5.696;2023-07-13T07:08:05;21.73;;;5.65;;
46731;SDS011;32477;51.474;5.696;2023-07-13T07:10:31;19.17;;;5.85;;
46731;SDS011;32477;51.474;5.696;2023-07-13T07:12:58;24.85;;;7.72;;
46731;SDS011;32477;51.474;5.696;2023-07-13T07:15:24;15.57;;;5.78;;
46731;SDS011;32477;51.474;5.696;2023-07-13T07:17:50;25.02;;;6.03;;
46731;SDS011;32477;51.474;5.696;2023-07-13T07:20:15;21.25;;;4.88;;
46731;SDS011;32477;51.474;5.696;2023-07-13T07:22:41;24.63;;;5.43;;
46731;SDS011;32477;51.474;5.696;2023-07-13T07:25:07;18.65;;;5.93;;
46731;SDS011;32477;51.474;5.696;2023-07-13T07:27:33;21.98;;;5.43;;
46731;SDS011;32477;51.474;5.696;2023-07-13T07:29:59;22.48;;;5.13;;
46731;SDS011;32477;51.474;5.696;2023-07-13T07:32:25;23.70;;;4.95;;
46731;SDS011;32477;51.474;5.696;2023-07-13T07:34:51;20.58;;;5.70;;
46731;SDS011;32477;51.474;5.696;2023-07-13T07:37:16;20.27;;;5.47;;
46731;SDS011;32477;51.474;5.696;2023-07-13T07:39:42;19.20;;;6.07;;
46731;SDS011;32477;51.474;5.696;2023-07-13T07:42:09;14.18;;;4.53;;
46731;SDS011;32477;51.474;5.696;2023-07-13T07:44:35;21.30;;;4.95;;
46731;SDS011;32477;51.474;5.696;2023-07-13T07:47:01;19.35;;;5.28;;
46731;SDS011;32477;51.474;5.696;2023-07-13T07:49:27;16.80;;;4.30;;
46731;SDS011;32477;51.474;5.696;2023-07-13T07:51:53;13.38;;;4.78;;
46731;SDS011;32477;51.474;5.696;2023-07-13T07:54:18;15.90;;;4.97;;
46731;SDS011;32477;51.474;5.696;2023-07-13T07:56:44;22.13;;;4.93;;
46731;SDS011;32477;51.474;5.696;2023-07-13T07:59:10;22.63;;;7.13;;
46731;SDS011;32477;51.474;5.696;2023-07-13T08:01:36;18.25;;;5.68;;
46731;SDS011;32477;51.474;5.696;2023-07-13T08:04:02;12.52;;;4.25;;
46731;SDS011;32477;51.474;5.696;2023-07-13T08:06:28;21.02;;;5.68;;
46731;SDS011;32477;51.474;5.696;2023-07-13T08:08:54;14.35;;;5.68;;
46731;SDS011;32477;51.474;5.696;2023-07-13T08:11:20;18.27;;;4.82;;
46731;SDS011;32477;51.474;5.696;2023-07-13T08:13:46;13.05;;;4.25;;
46731;SDS011;32477;51.474;5.696;2023-07-13T08:16:12;12.70;;;4.75;;
46731;SDS011;32477;51.474;5.696;2023-07-13T08:18:38;11.93;;;3.70;;
46731;SDS011;32477;51.474;5.696;2023-07-13T08:21:07;19.40;;;4.40;;
46731;SDS011;32477;51.474;5.696;2023-07-13T08:23:33;9.45;;;3.60;;
46731;SDS011;32477;51.474;5.696;2023-07-13T08:26:00;19.48;;;4.60;;
46731;SDS011;32477;51.474;5.696;2023-07-13T08:28:27;17.85;;;4.18;;
46731;SDS011;32477;51.474;5.696;2023-07-13T08:30:53;19.15;;;3.83;;
46731;SDS011;32477;51.474;5.696;2023-07-13T08:33:20;9.65;;;3.40;;
46731;SDS011;32477;51.474;5.696;2023-07-13T08:35:49;14.07;;;3.88;;
46731;SDS011;32477;51.474;5.696;2023-07-13T08:38:15;12.52;;;3.70;;
46731;SDS011;32477;51.474;5.696;2023-07-13T08:40:42;13.18;;;3.50;;
46731;SDS011;32477;51.474;5.696;2023-07-13T08:43:15;13.63;;;3.92;;
46731;SDS011;32477;51.474;5.696;2023-07-13T08:48:12;10.40;;;3.53;;
46731;SDS011;32477;51.474;5.696;2023-07-13T08:50:52;15.82;;;4.00;;
46731;SDS011;32477;51.474;5.696;2023-07-13T08:53:42;15.00;;;3.92;;
46731;SDS011;32477;51.474;5.696;2023-07-13T08:56:16;15.30;;;3.40;;
46731;SDS011;32477;51.474;5.696;2023-07-13T08:58:57;17.58;;;3.70;;
46731;SDS011;32477;51.474;5.696;2023-07-13T09:01:33;9.23;;;3.03;;
46731;SDS011;32477;51.474;5.696;2023-07-13T09:04:21;14.68;;;3.47;;
46731;SDS011;32477;51.474;5.696;2023-07-13T09:15:31;13.77;;;3.55;;
46731;SDS011;32477;51.474;5.696;2023-07-13T09:20:53;10.50;;;2.95;;
46731;SDS011;32477;51.474;5.696;2023-07-13T09:23:23;9.05;;;3.05;;
46731;SDS011;32477;51.474;5.696;2023-07-13T09:25:53;9.35;;;3.03;;
46731;SDS011;32477;51.474;5.696;2023-07-13T09:28:28;9.80;;;3.15;;
46731;SDS011;32477;51.474;5.696;2023-07-13T09:31:16;17.73;;;3.33;;
46731;SDS011;32477;51.474;5.696;2023-07-13T09:33:56;5.70;;;2.55;;
46731;SDS011;32477;51.474;5.696;2023-07-13T09:36:24;9.00;;;2.97;;
46731;SDS011;32477;51.474;5.696;2023-07-13T09:44:15;11.30;;;3.13;;
46731;SDS011;32477;51.474;5.696;2023-07-13T09:46:47;7.60;;;2.33;;
46731;SDS011;32477;51.474;5.696;2023-07-13T09:49:18;12.50;;;2.60;;
46731;SDS011;32477;51.474;5.696;2023-07-13T09:52:03;12.50;;;2.60;;
46731;SDS011;32477;51.474;5.696;2023-07-13T09:54:36;9.40;;;3.03;;
46731;SDS011;32477;51.474;5.696;2023-07-13T09:57:03;9.18;;;2.33;;
46731;SDS011;32477;51.474;5.696;2023-07-13T09:59:40;8.48;;;2.97;;
46731;SDS011;32477;51.474;5.696;2023-07-13T10:05:05;6.38;;;2.38;;
46731;SDS011;32477;51.474;5.696;2023-07-13T10:07:39;10.88;;;2.90;;
46731;SDS011;32477;51.474;5.696;2023-07-13T10:10:16;10.30;;;3.08;;
46731;SDS011;32477;51.474;5.696;2023-07-13T10:12:45;8.43;;;2.90;;
46731;SDS011;32477;51.474;5.696;2023-07-13T10:15:18;8.93;;;2.13;;
46731;SDS011;32477;51.474;5.696;2023-07-13T10:17:46;12.55;;;2.85;;
46731;SDS011;32477;51.474;5.696;2023-07-13T10:20:13;8.73;;;2.50;;
46731;SDS011;32477;51.474;5.696;2023-07-13T10:22:44;12.88;;;2.67;;
46731;SDS011;32477;51.474;5.696;2023-07-13T10:25:25;11.60;;;2.50;;
46731;SDS011;32477;51.474;5.696;2023-07-13T10:28:01;10.23;;;2.58;;
46731;SDS011;32477;51.474;5.696;2023-07-13T10:30:38;7.82;;;2.08;;
46731;SDS011;32477;51.474;5.696;2023-07-13T10:33:10;6.82;;;2.22;;
46731;SDS011;32477;51.474;5.696;2023-07-13T10:35:37;10.88;;;2.55;;
46731;SDS011;32477;51.474;5.696;2023-07-13T10:38:07;9.50;;;2.80;;
46731;SDS011;32477;51.474;5.696;2023-07-13T10:40:45;11.88;;;2.45;;
46731;SDS011;32477;51.474;5.696;2023-07-13T10:43:22;13.50;;;3.33;;
46731;SDS011;32477;51.474;5.696;2023-07-13T10:45:52;10.45;;;3.15;;
46731;SDS011;32477;51.474;5.696;2023-07-13T10:48:19;10.32;;;2.53;;
46731;SDS011;32477;51.474;5.696;2023-07-13T10:50:48;4.90;;;1.90;;
46731;SDS011;32477;51.474;5.696;2023-07-13T10:53:34;6.72;;;2.80;;
46731;SDS011;32477;51.474;5.696;2023-07-13T10:56:02;9.53;;;2.70;;
46731;SDS011;32477;51.474;5.696;2023-07-13T10:58:42;5.38;;;2.13;;
46731;SDS011;32477;51.474;5.696;2023-07-13T11:01:10;9.23;;;2.15;;
46731;SDS011;32477;51.474;5.696;2023-07-13T11:08:35;8.82;;;2.40;;
46731;SDS011;32477;51.474;5.696;2023-07-13T11:11:03;6.43;;;1.98;;
46731;SDS011;32477;51.474;5.696;2023-07-13T11:19:08;19.30;;;3.42;;
46731;SDS011;32477;51.474;5.696;2023-07-13T11:22:01;13.73;;;3.45;;
46731;SDS011;32477;51.474;5.696;2023-07-13T11:24:28;9.02;;;2.83;;
46731;SDS011;32477;51.474;5.696;2023-07-13T11:27:21;8.68;;;2.70;;
46731;SDS011;32477;51.474;5.696;2023-07-13T11:29:48;8.60;;;2.45;;
46731;SDS011;32477;51.474;5.696;2023-07-13T11:32:22;14.85;;;2.67;;
46731;SDS011;32477;51.474;5.696;2023-07-13T11:34:54;7.35;;;2.53;;
46731;SDS011;32477;51.474;5.696;2023-07-13T11:37:20;9.48;;;2.25;;
46731;SDS011;32477;51.474;5.696;2023-07-13T11:39:48;10.77;;;2.55;;
46731;SDS011;32477;51.474;5.696;2023-07-13T11:42:18;9.10;;;2.67;;
46731;SDS011;32477;51.474;5.696;2023-07-13T11:44:48;8.07;;;2.47;;
46731;SDS011;32477;51.474;5.696;2023-07-13T11:47:19;7.28;;;2.40;;
46731;SDS011;32477;51.474;5.696;2023-07-13T11:49:53;6.43;;;2.50;;
46731;SDS011;32477;51.474;5.696;2023-07-13T11:52:36;12.50;;;3.33;;
46731;SDS011;32477;51.474;5.696;2023-07-13T11:55:03;8.95;;;2.15;;
46731;SDS011;32477;51.474;5.696;2023-07-13T11:57:41;10.20;;;2.63;;
46731;SDS011;32477;51.474;5.696;2023-07-13T12:02:44;9.05;;;2.38;;
46731;SDS011;32477;51.474;5.696;2023-07-13T12:05:14;8.82;;;2.22;;
46731;SDS011;32477;51.474;5.696;2023-07-13T12:07:42;8.75;;;2.42;;
46731;SDS011;32477;51.474;5.696;2023-07-13T12:12:48;12.23;;;2.67;;
46731;SDS011;32477;51.474;5.696;2023-07-13T12:15:23;11.90;;;2.65;;
46731;SDS011;32477;51.474;5.696;2023-07-13T12:18:02;5.88;;;2.28;;
46731;SDS011;32477;51.474;5.696;2023-07-13T12:20:35;7.55;;;2.53;;
46731;SDS011;32477;51.474;5.696;2023-07-13T12:23:25;9.68;;;2.88;;
46731;SDS011;32477;51.474;5.696;2023-07-13T12:25:55;11.52;;;2.97;;
46731;SDS011;32477;51.474;5.696;2023-07-13T12:28:36;8.60;;;2.70;;
46731;SDS011;32477;51.474;5.696;2023-07-13T12:31:05;10.18;;;2.45;;
46731;SDS011;32477;51.474;5.696;2023-07-13T12:33:56;17.23;;;3.85;;
46731;SDS011;32477;51.474;5.696;2023-07-13T12:36:23;8.73;;;2.88;;
46731;SDS011;32477;51.474;5.696;2023-07-13T12:38:49;11.65;;;3.15;;
46731;SDS011;32477;51.474;5.696;2023-07-13T12:41:16;12.15;;;3.33;;
46731;SDS011;32477;51.474;5.696;2023-07-13T12:43:42;11.65;;;3.80;;
46731;SDS011;32477;51.474;5.696;2023-07-13T12:48:44;17.58;;;3.42;;
46731;SDS011;32477;51.474;5.696;2023-07-13T12:51:14;9.32;;;3.00;;
46731;SDS011;32477;51.474;5.696;2023-07-13T12:53:42;6.68;;;2.90;;
46731;SDS011;32477;51.474;5.696;2023-07-13T12:56:23;9.87;;;3.70;;
46731;SDS011;32477;51.474;5.696;2023-07-13T12:58:58;9.85;;;3.47;;
46731;SDS011;32477;51.474;5.696;2023-07-13T13:01:28;8.98;;;3.55;;
46731;SDS011;32477;51.474;5.696;2023-07-13T13:03:56;9.52;;;3.95;;
46731;SDS011;32477;51.474;5.696;2023-07-13T13:06:31;7.32;;;3.70;;
46731;SDS011;32477;51.474;5.696;2023-07-13T13:08:58;8.23;;;3.50;;
46731;SDS011;32477;51.474;5.696;2023-07-13T13:11:25;10.73;;;3.08;;
46731;SDS011;32477;51.474;5.696;2023-07-13T13:13:51;7.82;;;2.92;;
46731;SDS011;32477;51.474;5.696;2023-07-13T13:18:57;7.43;;;2.95;;
46731;SDS011;32477;51.474;5.696;2023-07-13T13:21:27;6.80;;;1.98;;
46731;SDS011;32477;51.474;5.696;2023-07-13T13:23:53;9.50;;;2.15;;
46731;SDS011;32477;51.474;5.696;2023-07-13T13:26:23;6.82;;;1.73;;
46731;SDS011;32477;51.474;5.696;2023-07-13T13:28:49;9.27;;;2.30;;
46731;SDS011;32477;51.474;5.696;2023-07-13T13:31:14;6.90;;;2.25;;
46731;SDS011;32477;51.474;5.696;2023-07-13T13:33:41;5.88;;;1.85;;
46731;SDS011;32477;51.474;5.696;2023-07-13T13:36:17;6.00;;;1.88;;
46731;SDS011;32477;51.474;5.696;2023-07-13T13:38:45;4.93;;;2.15;;
46731;SDS011;32477;51.474;5.696;2023-07-13T13:41:13;8.48;;;2.53;;
46731;SDS011;32477;51.474;5.696;2023-07-13T13:43:40;10.30;;;2.25;;
46731;SDS011;32477;51.474;5.696;2023-07-13T13:46:14;9.88;;;2.50;;
46731;SDS011;32477;51.474;5.696;2023-07-13T13:48:43;6.35;;;2.05;;
46731;SDS011;32477;51.474;5.696;2023-07-13T13:51:12;10.18;;;2.85;;
46731;SDS011;32477;51.474;5.696;2023-07-13T13:53:40;8.63;;;3.20;;
46731;SDS011;32477;51.474;5.696;2023-07-13T13:56:06;7.22;;;3.10;;
46731;SDS011;32477;51.474;5.696;2023-07-13T13:58:32;16.60;;;3.03;;
46731;SDS011;32477;51.474;5.696;2023-07-13T14:00:58;10.30;;;3.47;;
46731;SDS011;32477;51.474;5.696;2023-07-13T14:03:23;3.83;;;2.58;;
46731;SDS011;32477;51.474;5.696;2023-07-13T14:05:50;9.57;;;3.05;;
46731;SDS011;32477;51.474;5.696;2023-07-13T14:08:16;6.72;;;2.83;;
46731;SDS011;32477;51.474;5.696;2023-07-13T14:10:44;7.68;;;3.15;;
46731;SDS011;32477;51.474;5.696;2023-07-13T14:13:20;5.25;;;2.72;;
46731;SDS011;32477;51.474;5.696;2023-07-13T14:15:51;6.65;;;2.85;;
46731;SDS011;32477;51.474;5.696;2023-07-13T14:18:17;6.35;;;2.60;;
46731;SDS011;32477;51.474;5.696;2023-07-13T14:20:47;7.43;;;2.75;;
46731;SDS011;32477;51.474;5.696;2023-07-13T14:23:16;4.10;;;2.35;;
46731;SDS011;32477;51.474;5.696;2023-07-13T14:25:43;5.43;;;2.58;;
46731;SDS011;32477;51.474;5.696;2023-07-13T14:28:24;5.57;;;2.40;;
46731;SDS011;32477;51.474;5.696;2023-07-13T14:30:51;9.05;;;2.60;;
46731;SDS011;32477;51.474;5.696;2023-07-13T14:33:19;5.05;;;2.20;;
46731;SDS011;32477;51.474;5.696;2023-07-13T14:35:45;6.00;;;2.75;;
46731;SDS011;32477;51.474;5.696;2023-07-13T14:38:13;7.85;;;2.30;;
46731;SDS011;32477;51.474;5.696;2023-07-13T14:40:41;4.55;;;2.40;;
46731;SDS011;32477;51.474;5.696;2023-07-13T14:43:11;5.30;;;2.65;;
46731;SDS011;32477;51.474;5.696;2023-07-13T14:45:46;7.60;;;2.53;;
46731;SDS011;32477;51.474;5.696;2023-07-13T14:48:18;3.47;;;2.20;;
46731;SDS011;32477;51.474;5.696;2023-07-13T14:50:55;3.83;;;1.73;;
46731;SDS011;32477;51.474;5.696;2023-07-13T14:53:24;5.75;;;1.98;;
46731;SDS011;32477;51.474;5.696;2023-07-13T14:55:52;6.00;;;1.92;;
46731;SDS011;32477;51.474;5.696;2023-07-13T14:58:18;6.93;;;2.30;;
46731;SDS011;32477;51.474;5.696;2023-07-13T15:00:44;3.10;;;1.67;;
46731;SDS011;32477;51.474;5.696;2023-07-13T15:03:20;3.42;;;1.60;;
46731;SDS011;32477;51.474;5.696;2023-07-13T15:05:48;3.58;;;1.60;;
46731;SDS011;32477;51.474;5.696;2023-07-13T15:08:14;3.20;;;1.90;;
46731;SDS011;32477;51.474;5.696;2023-07-13T15:10:41;2.00;;;1.38;;
46731;SDS011;32477;51.474;5.696;2023-07-13T15:13:19;2.53;;;1.40;;
46731;SDS011;32477;51.474;5.696;2023-07-13T15:15:47;2.28;;;1.38;;
46731;SDS011;32477;51.474;5.696;2023-07-13T15:18:16;3.95;;;1.50;;
46731;SDS011;32477;51.474;5.696;2023-07-13T15:20:45;5.13;;;1.60;;
46731;SDS011;32477;51.474;5.696;2023-07-13T15:23:12;12.85;;;2.13;;
46731;SDS011;32477;51.474;5.696;2023-07-13T15:25:40;2.88;;;1.52;;
46731;SDS011;32477;51.474;5.696;2023-07-13T15:28:06;2.95;;;1.40;;
46731;SDS011;32477;51.474;5.696;2023-07-13T15:30:40;1.92;;;1.42;;
46731;SDS011;32477;51.474;5.696;2023-07-13T15:35:39;9.38;;;1.88;;